createdAt,value
2017-07-21T00:01:06.677Z,25.15
2017-07-21T00:02:16.629Z,25.18
2017-07-21T00:03:26.535Z,25.2
2017-07-21T00:04:36.131Z,25.13
2017-07-21T00:05:46.089Z,25.15
2017-07-21T00:06:55.702Z,25.1
2017-07-21T00:08:05.614Z,25.1
2017-07-21T00:09:15.928Z,25.14
2017-07-21T00:10:25.524Z,25.1
2017-07-21T00:11:35.438Z,25.08
2017-07-21T00:12:45.656Z,25.08
2017-07-21T00:13:55.567Z,25.03
2017-07-21T00:15:05.348Z,25.14
2017-07-21T00:16:15.258Z,25.09
2017-07-21T00:17:25.168Z,25.09
2017-07-21T00:18:34.757Z,25.1
2017-07-21T00:19:44.370Z,25.05
2017-07-21T00:20:54.589Z,25
2017-07-21T00:22:04.828Z,24.95
2017-07-21T00:23:14.742Z,25.08
2017-07-21T00:24:24.659Z,25.06
2017-07-21T00:25:33.959Z,24.98
2017-07-21T00:26:43.566Z,24.99
2017-07-21T00:27:53.470Z,24.95
2017-07-21T00:29:03.086Z,24.98
2017-07-21T00:30:13.317Z,24.93
2017-07-21T00:31:23.226Z,24.9
2017-07-21T00:32:33.208Z,24.91
2017-07-21T00:33:43.121Z,24.88
2017-07-21T00:34:53.032Z,24.87
2017-07-21T00:36:03.270Z,24.91
2017-07-21T00:37:13.493Z,24.98
2017-07-21T00:38:23.403Z,24.88
2017-07-21T00:39:33.315Z,24.8
2017-07-21T00:40:42.919Z,24.91
2017-07-21T00:41:52.527Z,24.81
2017-07-21T00:43:02.740Z,24.84
2017-07-21T00:44:13.279Z,24.8
2017-07-21T00:45:23.508Z,24.8
2017-07-21T00:46:33.418Z,24.81
2017-07-21T00:47:43.017Z,24.8
2017-07-21T00:48:52.623Z,24.84
2017-07-21T00:50:02.289Z,24.83
2017-07-21T00:51:11.894Z,24.77
2017-07-21T00:52:22.122Z,24.78
2017-07-21T00:53:31.733Z,24.83
2017-07-21T00:54:41.960Z,24.81
2017-07-21T00:55:52.333Z,24.83
2017-07-21T00:57:01.941Z,24.77
2017-07-21T00:58:12.169Z,24.8
2017-07-21T00:59:22.392Z,24.8
2017-07-21T01:00:32.604Z,24.78
2017-07-21T01:01:42.986Z,24.8
2017-07-21T01:02:52.897Z,24.68
2017-07-21T01:04:03.120Z,24.68
2017-07-21T01:05:12.448Z,24.67
2017-07-21T01:06:22.693Z,24.68
2017-07-21T01:07:32.917Z,24.69
2017-07-21T01:08:43.136Z,24.69
2017-07-21T01:09:53.367Z,24.65
2017-07-21T01:11:02.980Z,24.62
2017-07-21T01:12:12.585Z,24.67
2017-07-21T01:13:22.816Z,24.57
2017-07-21T01:14:32.743Z,24.57
2017-07-21T01:15:42.656Z,24.58
2017-07-21T01:16:52.565Z,24.61
2017-07-21T01:18:02.486Z,24.53
2017-07-21T01:19:12.544Z,24.52
2017-07-21T01:20:22.756Z,24.57
2017-07-21T01:21:32.693Z,24.53
2017-07-21T01:22:42.902Z,24.53
2017-07-21T01:23:53.136Z,24.55
2017-07-21T01:25:03.204Z,24.52
2017-07-21T01:26:13.118Z,24.58
2017-07-21T01:27:23.059Z,24.46
2017-07-21T01:28:32.674Z,24.39
2017-07-21T01:29:42.578Z,24.4
2017-07-21T01:30:52.788Z,24.45
2017-07-21T01:32:02.708Z,24.35
2017-07-21T01:33:12.322Z,24.32
2017-07-21T01:34:22.544Z,24.35
2017-07-21T01:35:32.145Z,24.27
2017-07-21T01:36:41.899Z,24.42
2017-07-21T01:37:51.849Z,24.42
2017-07-21T01:39:01.764Z,24.4
2017-07-21T01:40:11.378Z,24.4
2017-07-21T01:41:21.288Z,24.32
2017-07-21T01:42:30.911Z,24.46
2017-07-21T01:43:40.212Z,24.32
2017-07-21T01:44:50.117Z,24.42
2017-07-21T01:46:00.056Z,24.34
2017-07-21T01:47:09.669Z,24.3
2017-07-21T01:48:19.584Z,24.28
2017-07-21T01:49:29.509Z,24.31
2017-07-21T01:50:39.112Z,24.3
2017-07-21T01:51:49.331Z,24.27
2017-07-21T01:52:59.253Z,24.39
2017-07-21T01:54:09.341Z,24.3
2017-07-21T01:55:18.956Z,24.24
2017-07-21T01:56:28.867Z,24.3
2017-07-21T01:57:38.776Z,24.32
2017-07-21T01:58:48.693Z,24.21
2017-07-21T01:59:58.447Z,24.34
2017-07-21T02:01:07.462Z,24.12
2017-07-21T02:02:17.673Z,24.27
2017-07-21T02:03:27.577Z,24.21
2017-07-21T02:04:37.510Z,24.3
2017-07-21T02:05:48.083Z,24.25
2017-07-21T02:06:57.682Z,24.24
2017-07-21T02:08:07.593Z,24.24
2017-07-21T02:09:17.813Z,24.21
2017-07-21T02:10:27.433Z,24.2
2017-07-21T02:11:37.398Z,24.16
2017-07-21T02:12:47.002Z,24.21
2017-07-21T02:13:56.632Z,24.24
2017-07-21T02:15:06.545Z,24.21
2017-07-21T02:16:16.785Z,24.13
2017-07-21T02:17:27.009Z,24.15
2017-07-21T02:18:36.926Z,24.2
2017-07-21T02:19:46.527Z,24.12
2017-07-21T02:20:56.444Z,24.21
2017-07-21T02:22:06.050Z,24.2
2017-07-21T02:23:16.118Z,24.21
2017-07-21T02:24:25.422Z,24.12
2017-07-21T02:25:35.032Z,24.06
2017-07-21T02:26:45.262Z,24.15
2017-07-21T02:27:55.488Z,24.12
2017-07-21T02:29:05.472Z,24.2
2017-07-21T02:30:15.089Z,24.12
2017-07-21T02:31:24.993Z,24.12
2017-07-21T02:32:35.226Z,24.1
2017-07-21T02:33:44.822Z,24.1
2017-07-21T02:34:55.204Z,24.06
2017-07-21T02:36:05.130Z,24.06
2017-07-21T02:37:15.046Z,24.05
2017-07-21T02:38:24.969Z,24.05
2017-07-21T02:39:34.881Z,23.97
2017-07-21T02:40:44.493Z,24.08
2017-07-21T02:41:54.409Z,24.03
2017-07-21T02:43:04.012Z,23.98
2017-07-21T02:44:13.625Z,24.03
2017-07-21T02:45:23.583Z,24.05
2017-07-21T02:46:33.819Z,24.05
2017-07-21T02:47:43.720Z,24.03
2017-07-21T02:48:53.950Z,24
2017-07-21T02:50:04.192Z,24.05
2017-07-21T02:51:14.114Z,24.02
2017-07-21T02:52:24.362Z,23.98
2017-07-21T02:53:34.284Z,23.91
2017-07-21T02:54:44.504Z,23.88
2017-07-21T02:55:54.455Z,23.95
2017-07-21T02:57:04.387Z,23.97
2017-07-21T02:58:14.629Z,23.98
2017-07-21T02:59:24.537Z,23.9
2017-07-21T03:00:34.759Z,23.9
2017-07-21T03:01:44.378Z,23.94
2017-07-21T03:02:53.983Z,23.97
2017-07-21T03:04:03.295Z,23.9
2017-07-21T03:05:13.516Z,23.84
2017-07-21T03:06:23.452Z,23.84
2017-07-21T03:07:33.708Z,23.88
2017-07-21T03:08:43.014Z,23.76
2017-07-21T03:09:53.076Z,23.91
2017-07-21T03:11:03.305Z,23.8
2017-07-21T03:12:13.544Z,23.87
2017-07-21T03:13:23.763Z,23.87
2017-07-21T03:14:33.363Z,23.73
2017-07-21T03:15:43.581Z,23.83
2017-07-21T03:16:53.490Z,23.79
2017-07-21T03:18:03.724Z,23.76
2017-07-21T03:19:14.167Z,23.79
2017-07-21T03:20:23.765Z,23.78
2017-07-21T03:21:33.385Z,23.78
2017-07-21T03:22:43.298Z,23.83
2017-07-21T03:23:53.508Z,23.88
2017-07-21T03:25:03.424Z,23.85
2017-07-21T03:26:13.376Z,23.78
2017-07-21T03:27:23.297Z,23.7
2017-07-21T03:28:32.895Z,23.68
2017-07-21T03:29:42.814Z,23.65
2017-07-21T03:30:52.725Z,23.75
2017-07-21T03:32:02.633Z,23.65
2017-07-21T03:33:12.534Z,23.7
2017-07-21T03:34:22.756Z,23.76
2017-07-21T03:35:32.064Z,23.7
2017-07-21T03:36:42.289Z,23.69
2017-07-21T03:37:52.209Z,23.6
2017-07-21T03:39:01.812Z,23.68
2017-07-21T03:40:11.731Z,23.66
2017-07-21T03:41:21.344Z,23.63
2017-07-21T03:42:31.280Z,23.61
2017-07-21T03:43:41.191Z,23.63
2017-07-21T03:44:50.800Z,23.63
2017-07-21T03:46:01.009Z,23.61
2017-07-21T03:47:11.220Z,23.61
2017-07-21T03:48:21.426Z,23.57
2017-07-21T03:49:31.643Z,23.61
2017-07-21T03:50:41.269Z,23.58
2017-07-21T03:51:50.901Z,23.6
2017-07-21T03:53:01.124Z,23.58
2017-07-21T03:54:11.062Z,23.5
2017-07-21T03:55:21.284Z,23.57
2017-07-21T03:56:31.519Z,23.53
2017-07-21T03:57:41.442Z,23.48
2017-07-21T03:58:51.663Z,23.47
2017-07-21T04:00:01.582Z,23.43
2017-07-21T04:01:10.896Z,23.5
2017-07-21T04:02:20.800Z,23.43
2017-07-21T04:03:31.015Z,23.46
2017-07-21T04:04:40.947Z,23.4
2017-07-21T04:05:50.850Z,23.43
2017-07-21T04:07:00.152Z,23.42
2017-07-21T04:08:10.065Z,23.4
2017-07-21T04:09:19.987Z,23.46
2017-07-21T04:10:29.602Z,23.55
2017-07-21T04:11:39.815Z,23.48
2017-07-21T04:12:49.824Z,23.4
2017-07-21T04:13:59.741Z,23.47
2017-07-21T04:15:09.970Z,23.4
2017-07-21T04:16:20.219Z,23.46
2017-07-21T04:17:29.817Z,23.43
2017-07-21T04:18:40.113Z,23.43
2017-07-21T04:19:50.354Z,23.43
2017-07-21T04:20:59.681Z,23.39
2017-07-21T04:22:09.295Z,23.39
2017-07-21T04:23:18.896Z,23.47
2017-07-21T04:24:28.493Z,23.46
2017-07-21T04:25:38.289Z,23.42
2017-07-21T04:26:47.931Z,23.4
2017-07-21T04:27:57.869Z,23.43
2017-07-21T04:29:07.788Z,23.43
2017-07-21T04:30:17.712Z,23.42
2017-07-21T04:31:27.943Z,23.46
2017-07-21T04:32:37.855Z,23.43
2017-07-21T04:33:47.780Z,23.4
2017-07-21T04:34:57.700Z,23.43
2017-07-21T04:36:07.297Z,23.33
2017-07-21T04:37:16.914Z,23.42
2017-07-21T04:38:26.842Z,23.31
2017-07-21T04:39:36.455Z,23.39
2017-07-21T04:40:46.067Z,23.36
2017-07-21T04:41:55.994Z,23.36
2017-07-21T04:43:06.230Z,23.36
2017-07-21T04:44:16.153Z,23.43
2017-07-21T04:45:26.384Z,23.46
2017-07-21T04:46:36.305Z,23.33
2017-07-21T04:47:46.552Z,23.42
2017-07-21T04:48:56.185Z,23.42
2017-07-21T04:50:06.147Z,23.4
2017-07-21T04:51:16.371Z,23.46
2017-07-21T04:52:26.306Z,23.4
2017-07-21T04:53:36.537Z,23.4
2017-07-21T04:54:46.769Z,23.46
2017-07-21T04:55:56.391Z,23.46
2017-07-21T04:57:06.617Z,23.48
2017-07-21T04:58:16.542Z,23.61
2017-07-21T04:59:26.157Z,23.65
2017-07-21T05:00:35.454Z,23.73
2017-07-21T05:01:45.390Z,23.78
2017-07-21T05:02:55.315Z,23.7
2017-07-21T05:04:05.539Z,23.83
2017-07-21T05:05:15.779Z,23.88
2017-07-21T05:06:26.007Z,23.91
2017-07-21T05:07:35.919Z,24.05
2017-07-21T05:08:45.846Z,24.05
2017-07-21T05:09:55.502Z,24.2
2017-07-21T05:11:05.158Z,24.2
2017-07-21T05:12:15.403Z,24.22
2017-07-21T05:13:25.332Z,24.32
2017-07-21T05:14:35.238Z,24.42
2017-07-21T05:15:45.167Z,24.42
2017-07-21T05:16:54.478Z,24.37
2017-07-21T05:18:04.973Z,24.47
2017-07-21T05:19:14.897Z,24.53
2017-07-21T05:20:25.152Z,24.55
2017-07-21T05:21:35.376Z,24.65
2017-07-21T05:22:45.638Z,24.77
2017-07-21T05:23:55.562Z,24.83
2017-07-21T05:25:05.511Z,24.85
2017-07-21T05:26:15.134Z,24.9
2017-07-21T05:27:25.366Z,25.08
2017-07-21T05:28:35.025Z,25.17
2017-07-21T05:29:44.940Z,25.25
2017-07-21T05:30:55.174Z,25.39
2017-07-21T05:32:05.096Z,25.43
2017-07-21T05:33:15.366Z,25.47
2017-07-21T05:34:25.293Z,25.54
2017-07-21T05:35:35.529Z,25.69
2017-07-21T05:36:45.773Z,25.77
2017-07-21T05:37:55.097Z,25.94
2017-07-21T05:39:05.054Z,25.92
2017-07-21T05:40:14.964Z,25.97
2017-07-21T05:41:24.883Z,26.07
2017-07-21T05:42:34.809Z,26.29
2017-07-21T05:43:44.112Z,26.32
2017-07-21T05:44:54.039Z,26.5
2017-07-21T05:46:04.335Z,26.6
2017-07-21T05:47:13.960Z,26.62
2017-07-21T05:48:23.574Z,26.75
2017-07-21T05:49:33.790Z,26.82
2017-07-21T05:50:43.720Z,26.92
2017-07-21T05:51:53.642Z,26.97
2017-07-21T05:53:03.868Z,27
2017-07-21T05:54:13.803Z,27.12
2017-07-21T05:55:23.724Z,27.06
2017-07-21T05:56:33.647Z,27.17
2017-07-21T05:57:42.994Z,27.13
2017-07-21T05:58:52.914Z,27.28
2017-07-21T06:00:02.515Z,27.22
2017-07-21T06:01:12.149Z,27.31
2017-07-21T06:02:22.373Z,27.43
2017-07-21T06:03:31.977Z,27.5
2017-07-21T06:04:41.895Z,27.54
2017-07-21T06:05:52.122Z,27.6
2017-07-21T06:07:01.746Z,27.74
2017-07-21T06:08:12.018Z,27.79
2017-07-21T06:09:21.630Z,27.88
2017-07-21T06:10:31.433Z,27.92
2017-07-21T06:11:41.350Z,28.02
2017-07-21T06:12:51.286Z,28.07
2017-07-21T06:14:01.224Z,28.04
2017-07-21T06:15:11.152Z,28.21
2017-07-21T06:16:21.419Z,28.22
2017-07-21T06:17:31.351Z,28.24
2017-07-21T06:18:41.359Z,28.27
2017-07-21T06:19:51.580Z,28.3
2017-07-21T06:21:01.493Z,28.4
2017-07-21T06:22:11.452Z,28.36
2017-07-21T06:23:21.063Z,28.54
2017-07-21T06:24:31.293Z,28.54
2017-07-21T06:25:40.294Z,28.58
2017-07-21T06:26:49.898Z,28.56
2017-07-21T06:28:00.123Z,28.56
2017-07-21T06:29:10.044Z,28.7
2017-07-21T06:30:19.984Z,28.8
2017-07-21T06:31:30.216Z,28.77
2017-07-21T06:32:40.443Z,28.95
2017-07-21T06:33:49.747Z,29
2017-07-21T06:34:59.668Z,28.92
2017-07-21T06:36:09.304Z,29.12
2017-07-21T06:37:19.305Z,29.11
2017-07-21T06:38:29.278Z,29.26
2017-07-21T06:39:39.190Z,29.3
2017-07-21T06:40:49.109Z,29.34
2017-07-21T06:41:59.037Z,29.42
2017-07-21T06:43:08.978Z,29.48
2017-07-21T06:44:19.215Z,29.43
2017-07-21T06:45:29.443Z,29.45
2017-07-21T06:46:39.368Z,29.33
2017-07-21T06:47:49.304Z,29.23
2017-07-21T06:48:59.532Z,28.96
2017-07-21T06:50:09.777Z,28.96
2017-07-21T06:51:19.704Z,28.86
2017-07-21T06:52:29.336Z,28.78
2017-07-21T06:53:38.959Z,28.64
2017-07-21T06:54:48.878Z,28.58
2017-07-21T06:55:57.921Z,28.49
2017-07-21T06:57:07.545Z,28.39
2017-07-21T06:58:17.506Z,28.34
2017-07-21T06:59:27.437Z,28.37
2017-07-21T07:00:37.061Z,28.31
2017-07-21T07:01:46.680Z,28.41
2017-07-21T07:02:56.627Z,28.4
2017-07-21T07:04:06.564Z,28.71
2017-07-21T07:05:16.825Z,28.95
2017-07-21T07:06:27.102Z,29.39
2017-07-21T07:07:37.058Z,29.63
2017-07-21T07:08:46.691Z,29.98
2017-07-21T07:09:56.928Z,30.19
2017-07-21T07:11:07.158Z,30.46
2017-07-21T07:12:17.395Z,30.69
2017-07-21T07:13:27.028Z,30.92
2017-07-21T07:14:37.017Z,31.06
2017-07-21T07:15:46.643Z,31.28
2017-07-21T07:16:56.588Z,31.5
2017-07-21T07:18:06.860Z,31.72
2017-07-21T07:19:16.784Z,31.76
2017-07-21T07:20:27.017Z,31.92
2017-07-21T07:21:37.240Z,31.95
2017-07-21T07:22:47.182Z,31.85
2017-07-21T07:23:57.113Z,31.8
2017-07-21T07:25:06.757Z,31.53
2017-07-21T07:26:16.702Z,31.39
2017-07-21T07:27:26.937Z,31.26
2017-07-21T07:28:36.246Z,31.13
2017-07-21T07:29:45.857Z,30.99
2017-07-21T07:30:55.805Z,31.02
2017-07-21T07:32:05.432Z,30.91
2017-07-21T07:33:15.361Z,31.04
2017-07-21T07:34:25.289Z,30.98
2017-07-21T07:35:35.522Z,31.06
2017-07-21T07:36:45.136Z,31.06
2017-07-21T07:37:55.069Z,31.17
2017-07-21T07:39:04.992Z,31.35
2017-07-21T07:40:14.916Z,31.13
2017-07-21T07:41:24.833Z,31.04
2017-07-21T07:42:34.748Z,30.98
2017-07-21T07:43:44.659Z,30.91
2017-07-21T07:44:53.973Z,30.94
2017-07-21T07:46:04.186Z,30.75
2017-07-21T07:47:13.790Z,30.67
2017-07-21T07:48:24.013Z,30.45
2017-07-21T07:49:34.243Z,30.42
2017-07-21T07:50:44.166Z,30.43
2017-07-21T07:51:54.084Z,30.31
2017-07-21T07:53:04.004Z,30.15
2017-07-21T07:54:13.625Z,30
2017-07-21T07:55:23.543Z,29.95
2017-07-21T07:56:33.778Z,30.15
2017-07-21T07:57:43.391Z,30.13
2017-07-21T07:58:52.694Z,30.13
2017-07-21T08:00:02.306Z,30.05
2017-07-21T08:01:12.224Z,30.42
2017-07-21T08:02:22.146Z,30.95
2017-07-21T08:03:32.509Z,31.48
2017-07-21T08:04:42.472Z,32.1
2017-07-21T08:05:52.390Z,32.65
2017-07-21T08:07:01.395Z,33.12
2017-07-21T08:08:11.319Z,33.65
2017-07-21T08:09:21.541Z,34.06
2017-07-21T08:10:31.469Z,34.37
2017-07-21T08:11:41.723Z,34.65
2017-07-21T08:12:51.332Z,34.92
2017-07-21T08:14:01.253Z,35.21
2017-07-21T08:15:10.869Z,35.38
2017-07-21T08:16:20.496Z,35.34
2017-07-21T08:17:30.427Z,35.31
2017-07-21T08:18:40.347Z,35.19
2017-07-21T08:19:50.570Z,35.29
2017-07-21T08:21:00.184Z,35.43
2017-07-21T08:22:10.416Z,35.66
2017-07-21T08:23:20.661Z,35.92
2017-07-21T08:24:30.582Z,36.09
2017-07-21T08:25:40.803Z,36.37
2017-07-21T08:26:50.715Z,36.6
2017-07-21T08:28:00.325Z,36.78
2017-07-21T08:29:10.263Z,37.02
2017-07-21T08:30:20.184Z,37.09
2017-07-21T08:31:30.412Z,36.8
2017-07-21T08:32:40.647Z,36.54
2017-07-21T08:33:50.332Z,36.59
2017-07-21T08:34:59.966Z,36.31
2017-07-21T08:36:09.880Z,36.32
2017-07-21T08:37:19.842Z,36.34
2017-07-21T08:38:30.080Z,36.27
2017-07-21T08:39:40.314Z,36.29
2017-07-21T08:40:49.935Z,36.54
2017-07-21T08:41:59.868Z,36.76
2017-07-21T08:43:09.792Z,37
2017-07-21T08:44:19.734Z,37.24
2017-07-21T08:45:29.364Z,37.37
2017-07-21T08:46:38.989Z,37.64
2017-07-21T08:47:48.916Z,37.78
2017-07-21T08:48:58.542Z,37.86
2017-07-21T08:50:08.239Z,38.04
2017-07-21T08:51:17.853Z,38.12
2017-07-21T08:52:27.764Z,38.12
2017-07-21T08:53:38.000Z,38.07
2017-07-21T08:54:47.925Z,37.79
2017-07-21T08:55:57.546Z,37.47
2017-07-21T08:57:07.473Z,37.2
2017-07-21T08:58:17.707Z,36.76
2017-07-21T08:59:27.936Z,36.46
2017-07-21T09:00:38.191Z,36.2
2017-07-21T09:01:48.123Z,35.81
2017-07-21T09:02:57.756Z,35.5
2017-07-21T09:04:07.397Z,35.19
2017-07-21T09:05:17.632Z,34.91
2017-07-21T09:06:27.590Z,34.65
2017-07-21T09:07:37.574Z,34.32
2017-07-21T09:08:47.512Z,34.09
2017-07-21T09:09:57.744Z,33.79
2017-07-21T09:11:07.671Z,33.53
2017-07-21T09:12:17.296Z,33.34
2017-07-21T09:13:27.222Z,33.12
2017-07-21T09:14:36.846Z,32.92
2017-07-21T09:15:46.754Z,32.62
2017-07-21T09:16:56.702Z,32.47
2017-07-21T09:18:06.310Z,32.26
2017-07-21T09:19:16.548Z,32.1
2017-07-21T09:20:25.857Z,31.91
2017-07-21T09:21:35.772Z,31.76
2017-07-21T09:22:45.705Z,31.61
2017-07-21T09:23:55.634Z,31.47
2017-07-21T09:25:05.556Z,31.32
2017-07-21T09:26:15.171Z,31.17
2017-07-21T09:27:25.396Z,31.01
2017-07-21T09:28:35.158Z,30.92
2017-07-21T09:29:45.402Z,30.83
2017-07-21T09:30:55.626Z,30.7
2017-07-21T09:32:05.538Z,30.54
2017-07-21T09:33:15.145Z,30.38
2017-07-21T09:34:24.472Z,30.29
2017-07-21T09:35:34.412Z,30.2
2017-07-21T09:36:43.723Z,30.11
2017-07-21T09:37:53.039Z,30.04
2017-07-21T09:39:02.712Z,29.94
2017-07-21T09:40:12.635Z,29.79
2017-07-21T09:41:21.947Z,29.65
2017-07-21T09:42:31.914Z,29.57
2017-07-21T09:43:41.840Z,29.63
2017-07-21T09:44:51.452Z,29.51
2017-07-21T09:46:01.414Z,29.41
2017-07-21T09:47:11.636Z,29.26
2017-07-21T09:48:21.895Z,29.21
2017-07-21T09:49:32.146Z,29.19
2017-07-21T09:50:41.786Z,29.06
2017-07-21T09:51:51.709Z,29.11
2017-07-21T09:53:01.631Z,28.95
2017-07-21T09:54:11.549Z,28.93
2017-07-21T09:55:21.478Z,28.95
2017-07-21T09:56:31.716Z,28.83
2017-07-21T09:57:41.639Z,28.78
2017-07-21T09:58:51.553Z,28.8
2017-07-21T10:00:00.858Z,28.73
2017-07-21T10:01:11.106Z,28.7
2017-07-21T10:02:21.030Z,28.68
2017-07-21T10:03:31.266Z,28.62
2017-07-21T10:04:40.880Z,28.59
2017-07-21T10:05:50.488Z,28.49
2017-07-21T10:07:00.118Z,28.41
2017-07-21T10:08:10.337Z,28.46
2017-07-21T10:09:20.559Z,28.48
2017-07-21T10:10:30.485Z,28.41
2017-07-21T10:11:40.092Z,28.39
2017-07-21T10:12:50.313Z,28.39
2017-07-21T10:13:59.917Z,28.34
2017-07-21T10:15:09.829Z,28.3
2017-07-21T10:16:19.758Z,28.21
2017-07-21T10:17:29.360Z,28.22
2017-07-21T10:18:38.697Z,28.19
2017-07-21T10:19:48.316Z,28.18
2017-07-21T10:20:57.945Z,28.09
2017-07-21T10:22:07.864Z,28.14
2017-07-21T10:23:18.074Z,28.17
2017-07-21T10:24:27.374Z,28.11
2017-07-21T10:25:37.307Z,28.04
2017-07-21T10:26:47.248Z,28.02
2017-07-21T10:27:57.172Z,28.07
2017-07-21T10:29:10.424Z,27.96
2017-07-21T10:30:19.748Z,28
2017-07-21T10:31:29.987Z,27.99
2017-07-21T10:32:39.604Z,27.93
2017-07-21T10:33:49.865Z,27.93
2017-07-21T10:34:59.782Z,27.9
2017-07-21T10:36:10.018Z,27.92
2017-07-21T10:37:19.930Z,27.88
2017-07-21T10:38:29.691Z,27.82
2017-07-21T10:39:39.315Z,27.85
2017-07-21T10:40:49.535Z,27.9
2017-07-21T10:41:59.460Z,27.84
2017-07-21T10:43:09.699Z,27.87
2017-07-21T10:44:19.632Z,27.81
2017-07-21T10:45:29.846Z,27.75
2017-07-21T10:46:39.787Z,27.77
2017-07-21T10:47:49.713Z,27.75
2017-07-21T10:48:59.630Z,27.69
2017-07-21T10:50:09.850Z,27.75
2017-07-21T10:51:19.763Z,27.66
2017-07-21T10:52:29.999Z,27.66
2017-07-21T10:53:39.919Z,27.66
2017-07-21T10:54:49.541Z,27.69
2017-07-21T10:55:59.784Z,27.59
2017-07-21T10:57:10.018Z,27.63
2017-07-21T10:58:20.244Z,27.62
2017-07-21T10:59:30.174Z,27.7
2017-07-21T11:00:39.484Z,27.63
2017-07-21T11:01:48.790Z,27.67
2017-07-21T11:02:59.017Z,27.59
2017-07-21T11:04:08.930Z,27.59
2017-07-21T11:05:18.546Z,27.57
2017-07-21T11:06:28.774Z,27.54
2017-07-21T11:07:38.716Z,27.6
2017-07-21T11:08:48.641Z,27.5
2017-07-21T11:09:58.258Z,27.46
2017-07-21T11:11:08.478Z,27.51
2017-07-21T11:12:18.705Z,27.59
2017-07-21T11:13:28.930Z,27.51
2017-07-21T11:14:39.147Z,27.57
2017-07-21T11:15:49.069Z,27.55
2017-07-21T11:16:58.372Z,27.59
2017-07-21T11:18:08.593Z,27.47
2017-07-21T11:19:18.205Z,27.59
2017-07-21T11:20:28.141Z,27.47
2017-07-21T11:21:37.754Z,27.5
2017-07-21T11:22:47.665Z,27.49
2017-07-21T11:23:57.585Z,27.43
2017-07-21T11:25:06.876Z,27.51
2017-07-21T11:26:16.511Z,27.49
2017-07-21T11:27:26.430Z,27.41
2017-07-21T11:28:36.657Z,27.41
2017-07-21T11:29:46.605Z,27.36
2017-07-21T11:30:56.860Z,27.41
2017-07-21T11:32:06.800Z,27.39
2017-07-21T11:33:16.771Z,27.39
2017-07-21T11:34:26.079Z,27.4
2017-07-21T11:35:36.301Z,27.32
2017-07-21T11:36:46.532Z,27.37
2017-07-21T11:37:55.850Z,27.37
2017-07-21T11:39:06.081Z,27.43
2017-07-21T11:40:16.682Z,27.37
2017-07-21T11:41:26.302Z,27.36
2017-07-21T11:42:35.916Z,27.44
2017-07-21T11:43:45.869Z,27.37
2017-07-21T11:44:55.502Z,27.43
2017-07-21T11:46:05.411Z,27.36
2017-07-21T11:47:15.628Z,27.37
2017-07-21T11:48:25.236Z,27.4
2017-07-21T11:49:34.863Z,27.34
2017-07-21T11:50:44.465Z,27.36
2017-07-21T11:51:54.401Z,27.41
2017-07-21T11:53:04.325Z,27.43
2017-07-21T11:54:14.006Z,27.28
2017-07-21T11:55:23.932Z,27.43
2017-07-21T11:56:34.183Z,27.36
2017-07-21T11:57:44.414Z,27.43
2017-07-21T11:58:55.036Z,27.5
2017-07-21T12:00:04.941Z,27.36
2017-07-21T12:01:14.863Z,27.4
2017-07-21T12:02:24.499Z,27.43
2017-07-21T12:03:34.444Z,27.34
2017-07-21T12:04:44.391Z,27.32
2017-07-21T12:05:54.788Z,27.39
2017-07-21T12:07:05.026Z,27.32
2017-07-21T12:08:15.234Z,27.39
2017-07-21T12:09:25.145Z,27.36
2017-07-21T12:10:35.372Z,27.39
2017-07-21T12:11:45.461Z,27.28
2017-07-21T12:12:55.766Z,27.31
2017-07-21T12:14:05.474Z,27.34
2017-07-21T12:15:15.091Z,27.36
2017-07-21T12:16:25.019Z,27.34
2017-07-21T12:17:34.956Z,27.34
2017-07-21T12:18:45.174Z,27.36
2017-07-21T12:19:55.096Z,27.31
2017-07-21T12:21:05.016Z,27.36
2017-07-21T12:22:15.256Z,27.31
2017-07-21T12:23:25.163Z,27.37
2017-07-21T12:24:35.106Z,27.36
2017-07-21T12:25:45.026Z,27.29
2017-07-21T12:26:54.638Z,27.34
2017-07-21T12:28:04.260Z,27.31
2017-07-21T12:29:14.183Z,27.31
2017-07-21T12:30:24.091Z,27.31
2017-07-21T12:31:34.341Z,27.32
2017-07-21T12:32:44.263Z,27.29
2017-07-21T12:33:54.484Z,27.39
2017-07-21T12:35:04.715Z,27.36
2017-07-21T12:36:14.621Z,27.34
2017-07-21T12:37:24.238Z,27.24
2017-07-21T12:38:34.468Z,27.32
2017-07-21T12:39:44.709Z,27.36
2017-07-21T12:40:54.472Z,27.27
2017-07-21T12:42:17.448Z,27.31
2017-07-21T12:43:26.753Z,27.34
2017-07-21T12:44:36.676Z,27.34
2017-07-21T12:45:46.578Z,27.24
2017-07-21T12:46:56.198Z,27.34
2017-07-21T12:48:05.813Z,27.32
2017-07-21T12:49:16.062Z,27.31
2017-07-21T12:50:25.665Z,27.31
2017-07-21T12:51:35.583Z,27.34
2017-07-21T12:52:45.519Z,27.28
2017-07-21T12:53:55.796Z,27.39
2017-07-21T12:55:05.089Z,27.32
2017-07-21T12:56:15.007Z,27.27
2017-07-21T12:57:24.920Z,27.28
2017-07-21T12:58:35.149Z,27.34
2017-07-21T12:59:45.058Z,27.24
2017-07-21T13:00:55.026Z,27.31
2017-07-21T13:02:04.996Z,27.31
2017-07-21T13:03:14.920Z,27.28
2017-07-21T13:04:24.849Z,27.19
2017-07-21T13:05:34.513Z,27.36
2017-07-21T13:06:44.432Z,27.25
2017-07-21T13:07:54.668Z,27.32
2017-07-21T13:09:04.914Z,27.32
2017-07-21T13:10:15.172Z,27.25
2017-07-21T13:11:25.100Z,27.25
2017-07-21T13:12:34.718Z,27.29
2017-07-21T13:13:44.643Z,27.25
2017-07-21T13:14:54.857Z,27.29
2017-07-21T13:16:04.766Z,27.36
2017-07-21T13:17:14.085Z,27.36
2017-07-21T13:18:24.012Z,27.27
2017-07-21T13:19:33.924Z,27.31
2017-07-21T13:20:43.226Z,27.19
2017-07-21T13:21:53.194Z,27.34
2017-07-21T13:23:03.111Z,27.21
2017-07-21T13:24:12.721Z,27.37
2017-07-21T13:25:22.632Z,27.27
2017-07-21T13:26:31.930Z,27.22
2017-07-21T13:27:41.554Z,27.34
2017-07-21T13:28:51.165Z,27.19
2017-07-21T13:30:01.075Z,27.28
2017-07-21T13:31:10.684Z,27.36
2017-07-21T13:32:20.330Z,27.34
2017-07-21T13:33:30.239Z,27.19
2017-07-21T13:34:40.465Z,27.25
2017-07-21T13:35:50.692Z,27.34
2017-07-21T13:37:00.620Z,27.22
2017-07-21T13:38:10.845Z,27.31
2017-07-21T13:39:21.070Z,27.36
2017-07-21T13:40:31.302Z,27.22
2017-07-21T13:41:41.221Z,27.31
2017-07-21T13:42:51.147Z,27.31
2017-07-21T13:44:01.077Z,27.36
2017-07-21T13:45:11.319Z,27.27
2017-07-21T13:46:21.547Z,27.36
2017-07-21T13:47:31.452Z,27.27
2017-07-21T13:48:41.665Z,27.32
2017-07-21T13:49:51.605Z,27.32
2017-07-21T13:51:01.854Z,27.31
2017-07-21T13:52:12.082Z,27.31
2017-07-21T13:53:21.378Z,27.25
2017-07-21T13:54:31.290Z,27.39
2017-07-21T13:55:41.201Z,27.27
2017-07-21T13:56:50.798Z,27.36
2017-07-21T13:58:01.017Z,27.34
2017-07-21T13:59:11.230Z,27.31
2017-07-21T14:00:20.522Z,27.39
2017-07-21T14:01:30.454Z,27.28
2017-07-21T14:02:40.373Z,27.36
2017-07-21T14:03:50.286Z,27.31
2017-07-21T14:05:00.508Z,27.36
2017-07-21T14:06:10.115Z,27.27
2017-07-21T14:07:20.035Z,27.31
2017-07-21T14:08:30.247Z,27.31
2017-07-21T14:09:40.169Z,27.25
2017-07-21T14:10:50.450Z,27.36
2017-07-21T14:11:59.444Z,27.36
2017-07-21T14:13:09.375Z,27.34
2017-07-21T14:14:18.987Z,27.37
2017-07-21T14:15:28.899Z,27.31
2017-07-21T14:16:38.845Z,27.34
2017-07-21T14:17:48.461Z,27.36
2017-07-21T14:18:58.379Z,27.36
2017-07-21T14:20:08.325Z,27.34
2017-07-21T14:21:18.544Z,27.36
2017-07-21T14:22:28.465Z,27.37
2017-07-21T14:23:38.690Z,27.28
2017-07-21T14:24:48.917Z,27.34
2017-07-21T14:25:58.843Z,27.32
2017-07-21T14:27:09.059Z,27.32
2017-07-21T14:28:18.670Z,27.34
2017-07-21T14:29:28.271Z,27.27
2017-07-21T14:30:37.565Z,27.36
2017-07-21T14:31:47.485Z,27.27
2017-07-21T14:32:57.387Z,27.37
2017-07-21T14:34:07.620Z,27.29
2017-07-21T14:35:17.559Z,27.36
2017-07-21T14:36:27.836Z,27.28
2017-07-21T14:37:37.755Z,27.31
2017-07-21T14:38:47.666Z,27.31
2017-07-21T14:39:57.578Z,27.36
2017-07-21T14:41:07.498Z,27.36
2017-07-21T14:42:17.709Z,27.36
2017-07-21T14:43:27.637Z,27.27
2017-07-21T14:44:37.564Z,27.34
2017-07-21T14:45:47.785Z,27.34
2017-07-21T14:46:57.431Z,27.34
2017-07-21T14:48:07.041Z,27.34
2017-07-21T14:49:16.646Z,27.32
2017-07-21T14:50:26.551Z,27.21
2017-07-21T14:51:36.459Z,27.31
2017-07-21T14:52:46.373Z,27.31
2017-07-21T14:53:56.273Z,27.29
2017-07-21T14:55:06.490Z,27.24
2017-07-21T14:56:16.089Z,27.36
2017-07-21T14:57:25.705Z,27.28
2017-07-21T14:58:35.931Z,27.34
2017-07-21T14:59:45.533Z,27.37
2017-07-21T15:00:55.139Z,27.34
2017-07-21T15:02:05.051Z,27.24
2017-07-21T15:03:14.662Z,27.37
2017-07-21T15:04:24.571Z,27.21
2017-07-21T15:05:34.187Z,27.34